Time;durP1;ratioP1;P1;durP2;ratioP2;P2;SDS_P1;SDS_P2;PMS_P1;PMS_P2;Temp;Humidity;BMP_temperature;BMP_pressure;BME280_temperature;BME280_humidity;BME280_pressure;Samples;Min_cycle;Max_cycle;Signal;HPM_P1;HPM_P2
2022/04/21 00:00:07;;;;;;;6.50;4.88;;;;;;;8.88;63.12;101293.72;5063618;28;20442;-73
2022/04/21 00:02:33;;;;;;;10.88;5.45;;;;;;;8.90;62.79;101294.47;5055454;28;20033;-77
2022/04/21 00:04:59;;;;;;;6.03;4.40;;;;;;;8.88;62.00;101286.44;5063791;28;20435;-70
2022/04/21 00:07:25;;;;;;;6.38;4.40;;;;;;;8.88;61.90;101291.00;5071429;28;20071;-74
2022/04/21 00:09:50;;;;;;;7.43;4.95;;;;;;;8.88;61.83;101288.28;5071608;28;20372;-70
2022/04/21 00:12:16;;;;;;;7.70;4.75;;;;;;;8.87;62.12;101281.97;5066864;28;20044;-79
2022/04/21 00:14:42;;;;;;;10.88;5.07;;;;;;;8.85;62.38;101286.59;5063244;28;20055;-71
2022/04/21 00:17:10;;;;;;;11.63;5.18;;;;;;;8.85;62.35;101280.31;5069541;28;20035;-79
2022/04/21 00:19:37;;;;;;;9.02;4.70;;;;;;;8.79;63.86;101277.97;5059872;28;20108;-70
2022/04/21 00:24:48;;;;;;;9.27;4.82;;;;;;;8.74;63.61;101277.34;5067041;28;20028;-70
2022/04/21 00:27:13;;;;;;;7.45;4.60;;;;;;;8.74;62.18;101274.66;5068727;28;20392;-77
2022/04/21 00:29:39;;;;;;;6.78;4.43;;;;;;;8.73;62.86;101273.78;5066520;28;20028;-72
2022/04/21 00:32:05;;;;;;;10.48;5.25;;;;;;;8.71;63.13;101267.53;5081186;28;20063;-77
2022/04/21 00:34:33;;;;;;;8.70;4.93;;;;;;;8.65;62.89;101274.22;5068943;28;20119;-70
2022/04/21 00:36:59;;;;;;;8.20;5.05;;;;;;;8.61;63.93;101275.34;5070482;28;20033;-75
2022/04/21 00:39:25;;;;;;;10.68;4.95;;;;;;;8.63;62.99;101280.69;5086833;28;20445;-78
2022/04/21 00:41:59;;;;;;;6.97;4.40;;;;;;;8.61;63.43;101279.91;5073084;28;20016;-74
2022/04/21 00:44:26;;;;;;;7.70;4.68;;;;;;;8.56;63.31;101276.56;5056487;28;20063;-78
2022/04/21 00:46:53;;;;;;;7.43;4.65;;;;;;;8.55;63.18;101266.69;5071992;28;20035;-70
2022/04/21 00:49:20;;;;;;;7.70;5.20;;;;;;;8.53;64.25;101271.31;5071382;28;20086;-69
2022/04/21 00:51:46;;;;;;;6.90;4.75;;;;;;;8.50;63.72;101274.22;5073778;28;20040;-78
2022/04/21 00:54:11;;;;;;;8.32;4.95;;;;;;;8.43;64.54;101274.53;5071722;28;20041;-79
2022/04/21 00:56:39;;;;;;;10.02;4.85;;;;;;;8.41;64.32;101275.63;5071526;28;20396;-70
2022/04/21 00:59:06;;;;;;;7.40;4.78;;;;;;;8.38;64.51;101267.63;5069884;28;20028;-74
2022/04/21 01:04:18;;;;;;;11.10;5.00;;;;;;;8.30;65.58;101275.28;5069252;28;20036;-78
2022/04/21 01:06:43;;;;;;;8.30;4.97;;;;;;;8.26;65.08;101271.91;5075276;28;20498;-77
2022/04/21 01:09:09;;;;;;;8.80;5.20;;;;;;;8.25;65.56;101277.38;5071496;28;20025;-73
2022/04/21 01:11:35;;;;;;;11.85;5.45;;;;;;;8.21;65.72;101270.38;5073665;28;20391;-70
2022/04/21 01:14:00;;;;;;;6.72;4.93;;;;;;;8.20;64.81;101269.50;5063607;28;20041;-75
2022/04/21 01:16:25;;;;;;;7.97;5.03;;;;;;;8.21;64.70;101273.09;5088207;28;20491;-71
2022/04/21 01:18:52;;;;;;;7.85;5.15;;;;;;;8.16;66.12;101273.38;5065921;28;20032;-78
2022/04/21 01:21:17;;;;;;;6.30;4.60;;;;;;;8.11;65.63;101273.63;5073241;28;20040;-70
2022/04/21 01:23:42;;;;;;;7.63;5.38;;;;;;;8.08;64.42;101268.38;5069641;28;20032;-69
2022/04/21 01:26:10;;;;;;;6.82;4.63;;;;;;;8.08;64.96;101264.78;5064314;28;20090;-77
2022/04/21 01:28:36;;;;;;;7.78;5.28;;;;;;;8.06;65.12;101266.69;5069962;28;20061;-74
2022/04/21 01:31:01;;;;;;;6.95;4.70;;;;;;;8.04;64.88;101268.63;5065518;28;20044;-71
2022/04/21 01:33:26;;;;;;;6.40;4.85;;;;;;;8.02;65.70;101267.81;5054266;28;20047;-69
2022/04/21 01:35:52;;;;;;;9.43;4.85;;;;;;;7.98;64.67;101267.13;5071853;28;20024;-77
2022/04/21 01:41:10;;;;;;;13.13;5.32;;;;;;;7.93;64.19;101259.25;5070672;28;20171;-70
2022/04/21 01:43:36;;;;;;;8.95;4.85;;;;;;;7.98;64.45;101250.88;5069020;28;20040;-69
2022/04/21 01:46:02;;;;;;;7.57;4.90;;;;;;;7.95;63.62;101250.16;5038662;28;20029;-75
2022/04/21 01:48:28;;;;;;;7.75;4.82;;;;;;;7.96;64.15;101260.91;5069427;28;20032;-70
2022/04/21 01:50:53;;;;;;;6.45;4.55;;;;;;;7.96;63.97;101252.78;5070727;28;20040;-71
2022/04/21 01:53:19;;;;;;;7.53;4.53;;;;;;;7.96;64.37;101260.03;5070524;28;20078;-70
2022/04/21 01:55:44;;;;;;;10.10;4.75;;;;;;;7.90;64.24;101259.41;5064033;28;20033;-69
2022/04/21 01:58:09;;;;;;;7.88;5.10;;;;;;;7.86;64.37;101265.09;5066174;28;20028;-78
2022/04/21 02:00:35;;;;;;;8.05;4.40;;;;;;;7.84;63.37;101262.47;5066152;28;20039;-78
2022/04/21 02:03:02;;;;;;;7.75;4.47;;;;;;;7.83;65.08;101266.16;5068362;28;20027;-71
2022/04/21 02:05:28;;;;;;;9.60;5.43;;;;;;;7.77;64.59;101255.63;5066936;28;20468;-78
2022/04/21 02:07:54;;;;;;;8.95;4.82;;;;;;;7.74;65.27;101257.63;5072547;28;20040;-70
2022/04/21 02:10:21;;;;;;;6.68;5.30;;;;;;;7.67;66.19;101263.38;5072962;28;20496;-70
2022/04/21 02:12:47;;;;;;;9.02;6.00;;;;;;;7.63;65.23;101264.50;5071084;28;20070;-69
2022/04/21 02:15:13;;;;;;;9.02;5.60;;;;;;;7.60;65.39;101253.84;5065769;28;20080;-77
2022/04/21 02:17:39;;;;;;;7.85;5.80;;;;;;;7.57;66.70;101253.13;5066917;28;20161;-76
2022/04/21 02:20:08;;;;;;;8.43;5.32;;;;;;;7.50;67.15;101252.56;5054044;28;20103;-70
2022/04/21 02:22:37;;;;;;;8.18;5.45;;;;;;;7.46;65.85;101258.22;5063358;28;20036;-75
2022/04/21 02:25:04;;;;;;;8.68;5.25;;;;;;;7.38;66.84;101256.81;5062100;28;20403;-75
2022/04/21 02:27:30;;;;;;;8.70;5.82;;;;;;;7.37;66.19;101263.19;5070349;28;20037;-69
2022/04/21 02:29:56;;;;;;;8.63;5.45;;;;;;;7.35;65.99;101253.38;5067431;28;20032;-72
2022/04/21 02:32:21;;;;;;;10.00;5.82;;;;;;;7.38;66.32;101264.06;5072051;28;20067;-78
2022/04/21 02:34:47;;;;;;;9.05;6.28;;;;;;;7.31;66.86;101258.06;5058863;28;20037;-78
2022/04/21 02:37:13;;;;;;;9.80;5.40;;;;;;;7.24;67.08;101250.38;5071689;28;20040;-71
2022/04/21 02:39:38;;;;;;;11.70;5.80;;;;;;;7.19;66.96;101247.03;5052512;28;20036;-73
2022/04/21 02:42:04;;;;;;;11.85;6.45;;;;;;;7.12;68.17;101258.16;5059211;28;20391;-71
2022/04/21 02:44:30;;;;;;;12.68;5.82;;;;;;;7.07;68.83;101254.81;5063145;28;20529;-69
2022/04/21 02:46:58;;;;;;;15.75;6.68;;;;;;;7.06;68.17;101257.59;5071934;28;20079;-76
2022/04/21 02:49:23;;;;;;;8.85;5.72;;;;;;;7.00;68.95;101256.09;5068324;28;20044;-69
2022/04/21 02:51:48;;;;;;;9.95;5.60;;;;;;;6.93;69.69;101249.22;5070234;28;20032;-78
2022/04/21 02:59:42;;;;;;;7.70;5.43;;;;;;;6.88;69.62;101256.69;5066953;28;20492;-75
2022/04/21 03:02:08;;;;;;;9.55;5.00;;;;;;;6.88;69.68;101249.47;5069591;28;20070;-69
2022/04/21 03:04:33;;;;;;;9.98;5.40;;;;;;;6.88;68.92;101254.00;5059671;28;20043;-74
2022/04/21 03:06:58;;;;;;;10.55;5.45;;;;;;;6.85;69.68;101248.72;5070651;28;20108;-69
2022/04/21 03:09:24;;;;;;;10.38;5.55;;;;;;;6.80;69.50;101248.09;5065126;28;20107;-74
2022/04/21 03:11:49;;;;;;;11.07;5.78;;;;;;;6.78;69.71;101247.31;5055389;28;20036;-76
2022/04/21 03:14:15;;;;;;;11.25;5.80;;;;;;;6.76;68.92;101241.09;5069087;28;20059;-78
2022/04/21 03:16:41;;;;;;;9.93;5.72;;;;;;;6.71;69.57;101237.75;5060716;28;20020;-78
2022/04/21 03:19:06;;;;;;;6.80;4.78;;;;;;;6.71;68.92;101240.44;5066081;28;20127;-75
2022/04/21 03:24:21;;;;;;;9.43;5.75;;;;;;;6.72;68.66;101242.22;5070454;28;20119;-70
2022/04/21 03:26:51;;;;;;;10.48;5.20;;;;;;;6.72;68.67;101245.78;5057298;28;20535;-69
2022/04/21 03:29:17;;;;;;;7.90;5.18;;;;;;;6.70;69.41;101242.28;5056965;28;20157;-75
2022/04/21 03:31:43;;;;;;;9.57;5.32;;;;;;;6.65;68.70;101242.50;5069750;28;20060;-79
2022/04/21 03:34:13;;;;;;;8.10;5.47;;;;;;;6.69;68.57;101245.06;5057680;28;20091;-74
2022/04/21 03:36:47;;;;;;;7.60;5.40;;;;;;;6.68;68.21;101257.72;5084715;28;20103;-72
2022/04/21 03:39:12;;;;;;;8.82;5.45;;;;;;;6.65;69.31;101247.03;5064152;28;20480;-76
2022/04/21 03:41:38;;;;;;;11.35;5.50;;;;;;;6.63;68.29;101244.41;5070270;28;20024;-70
2022/04/21 03:44:06;;;;;;;9.07;6.00;;;;;;;6.59;68.58;101247.34;5081071;28;20033;-73
2022/04/21 03:46:32;;;;;;;9.07;5.45;;;;;;;6.59;69.41;101255.47;5053381;28;20020;-75
2022/04/21 03:48:58;;;;;;;9.70;5.70;;;;;;;6.55;68.90;101254.72;5053110;28;20063;-70
2022/04/21 03:51:26;;;;;;;7.82;5.32;;;;;;;6.53;69.68;101253.94;5070705;28;20503;-79
2022/04/21 03:53:51;;;;;;;10.90;5.70;;;;;;;6.55;68.93;101252.03;5070601;28;20129;-69
2022/04/21 03:56:17;;;;;;;8.35;5.43;;;;;;;6.53;69.04;101261.19;5070351;28;20050;-69
2022/04/21 03:58:42;;;;;;;9.38;5.90;;;;;;;6.50;68.67;101258.63;5066351;28;20025;-77
2022/04/21 04:01:07;;;;;;;7.82;5.20;;;;;;;6.43;69.48;101255.31;5060406;28;20042;-78
2022/04/21 04:03:33;;;;;;;12.07;6.30;;;;;;;6.42;69.40;101261.69;5066662;28;20048;-78
2022/04/21 04:05:58;;;;;;;7.10;5.35;;;;;;;6.41;69.33;101257.22;5060983;28;20033;-79
2022/04/21 04:11:10;;;;;;;8.35;5.88;;;;;;;6.36;69.72;101261.97;5068678;28;20602;-71
2022/04/21 04:13:35;;;;;;;10.55;5.82;;;;;;;6.33;69.00;101251.31;5068199;28;20083;-71
2022/04/21 04:16:01;;;;;;;9.48;5.63;;;;;;;6.32;69.45;101250.44;5050077;28;20112;-69
2022/04/21 04:18:26;;;;;;;11.32;5.95;;;;;;;6.31;68.96;101259.50;5063658;28;20033;-69
2022/04/21 04:20:52;;;;;;;7.90;5.72;;;;;;;6.28;69.43;101256.06;5061653;28;20031;-71
2022/04/21 04:23:21;;;;;;;7.25;5.45;;;;;;;6.23;69.70;101250.88;5084452;28;20036;-70
2022/04/21 04:25:47;;;;;;;8.13;5.45;;;;;;;6.23;69.95;101258.13;5067047;28;20036;-69
2022/04/21 04:28:12;;;;;;;8.50;5.05;;;;;;;6.20;69.30;101253.75;5068843;28;20036;-78
2022/04/21 04:30:43;;;;;;;7.57;5.57;;;;;;;6.13;69.67;101255.84;5066564;28;20025;-70
2022/04/21 04:33:08;;;;;;;7.90;5.38;;;;;;;6.10;69.92;101255.13;5050529;28;20043;-71
2022/04/21 04:35:34;;;;;;;8.65;5.85;;;;;;;6.04;69.63;101250.00;5068990;28;20060;-71
2022/04/21 04:38:00;;;;;;;9.38;5.97;;;;;;;6.08;70.18;101263.28;5067307;28;20112;-78
2022/04/21 04:40:25;;;;;;;9.00;5.47;;;;;;;6.09;70.64;101261.47;5070447;28;20032;-71
2022/04/21 04:42:55;;;;;;;14.68;5.93;;;;;;;6.10;70.00;101260.50;5069147;28;20028;-78
2022/04/21 04:48:05;;;;;;;9.85;6.25;;;;;;;6.10;70.63;101264.09;5067453;28;20040;-74
2022/04/21 04:50:31;;;;;;;12.95;6.50;;;;;;;6.11;70.26;101270.41;5062214;28;20037;-78
2022/04/21 04:52:58;;;;;;;10.30;6.47;;;;;;;6.14;70.11;101270.22;5069619;28;20060;-69
2022/04/21 04:55:24;;;;;;;8.25;5.70;;;;;;;6.15;69.54;101274.69;5067513;28;20021;-75
2022/04/21 04:57:50;;;;;;;9.05;5.53;;;;;;;6.18;69.37;101271.84;5069286;28;20029;-74
2022/04/21 05:00:15;;;;;;;7.35;5.00;;;;;;;6.25;69.83;101277.81;5061953;28;20039;-75
2022/04/21 05:02:41;;;;;;;11.57;5.68;;;;;;;6.26;69.42;101271.50;5060857;28;20033;-77
2022/04/21 05:05:07;;;;;;;7.95;5.53;;;;;;;6.28;69.22;101266.88;5067852;28;20043;-79
2022/04/21 05:07:33;;;;;;;10.98;6.22;;;;;;;6.32;68.91;101274.75;5066169;28;20169;-71
2022/04/21 05:09:58;;;;;;;8.23;5.38;;;;;;;6.34;69.23;101269.28;5069113;28;20032;-70
2022/04/21 05:12:24;;;;;;;11.32;5.70;;;;;;;6.35;69.27;101268.34;5067246;28;20051;-75
2022/04/21 05:14:49;;;;;;;10.40;6.03;;;;;;;6.36;69.50;101265.56;5047787;28;20111;-78
2022/04/21 05:17:14;;;;;;;8.48;5.97;;;;;;;6.39;69.70;101267.25;5049050;28;20029;-79
2022/04/21 05:19:40;;;;;;;12.02;7.13;;;;;;;6.39;69.61;101264.56;5081408;28;20032;-76
2022/04/21 05:22:06;;;;;;;10.73;5.40;;;;;;;6.46;69.52;101265.13;5066999;28;20020;-75
2022/04/21 05:24:32;;;;;;;9.50;5.90;;;;;;;6.49;69.83;101259.56;5065713;28;20039;-75
2022/04/21 05:26:58;;;;;;;8.25;5.57;;;;;;;6.56;68.40;101256.47;5066461;28;20131;-70
2022/04/21 05:32:09;;;;;;;8.88;5.95;;;;;;;6.72;68.50;101262.00;5070373;28;20032;-75
2022/04/21 05:34:35;;;;;;;13.13;6.03;;;;;;;6.81;67.90;101263.38;5058613;28;20064;-75
2022/04/21 05:37:01;;;;;;;12.25;6.35;;;;;;;6.87;67.99;101261.25;5064317;28;20059;-70
2022/04/21 05:39:28;;;;;;;10.10;6.18;;;;;;;6.93;68.54;101268.16;5063214;28;20021;-69
2022/04/21 05:41:56;;;;;;;9.32;5.82;;;;;;;6.95;68.62;101262.66;5071168;28;20036;-78
2022/04/21 05:44:22;;;;;;;12.77;6.03;;;;;;;7.03;68.20;101261.31;5062582;28;20068;-75
2022/04/21 05:46:47;;;;;;;12.05;6.63;;;;;;;7.09;68.06;101257.44;5067460;28;20071;-75
2022/04/21 05:49:13;;;;;;;12.93;5.90;;;;;;;7.15;69.03;101263.41;5073658;28;20495;-69
2022/04/21 05:51:41;;;;;;;12.30;6.80;;;;;;;7.18;68.63;101258.78;5060936;28;20377;-73
2022/04/21 05:54:07;;;;;;;14.80;6.28;;;;;;;7.25;68.07;101271.06;5069625;28;20048;-69
2022/04/21 05:56:33;;;;;;;9.43;6.25;;;;;;;7.32;68.00;101261.66;5067756;28;20029;-68
2022/04/21 05:58:59;;;;;;;12.95;6.00;;;;;;;7.45;67.35;101262.75;5061078;28;20802;-75
2022/04/21 06:01:25;;;;;;;9.30;6.43;;;;;;;7.52;68.22;101266.03;5060495;28;20051;-69
2022/04/21 06:03:52;;;;;;;14.68;5.88;;;;;;;7.60;68.15;101261.97;5055196;28;20040;-75
2022/04/21 06:06:18;;;;;;;10.48;6.00;;;;;;;7.72;67.10;101259.53;5066473;28;20033;-75
2022/04/21 06:08:43;;;;;;;10.93;6.03;;;;;;;7.83;66.92;101265.25;5079940;28;20045;-69
2022/04/21 06:11:09;;;;;;;10.55;6.40;;;;;;;7.91;66.19;101253.03;5062481;28;20040;-73
2022/04/21 06:13:34;;;;;;;10.32;6.38;;;;;;;7.99;66.44;101258.03;5061546;28;20071;-73
2022/04/21 06:16:00;;;;;;;12.32;7.03;;;;;;;8.15;66.98;101261.63;5065207;28;20035;-69
2022/04/21 06:18:26;;;;;;;12.05;7.03;;;;;;;8.27;65.30;101264.63;5062592;28;20537;-69
2022/04/21 06:20:54;;;;;;;11.10;6.07;;;;;;;8.35;65.63;101260.53;5064975;28;20051;-74
2022/04/21 06:23:20;;;;;;;12.95;7.05;;;;;;;8.38;65.61;101252.25;5044913;28;20025;-70
2022/04/21 06:25:46;;;;;;;9.00;5.57;;;;;;;8.51;64.16;101249.72;5048062;28;20043;-69
2022/04/21 06:28:12;;;;;;;13.30;6.32;;;;;;;8.70;63.29;101249.53;5060538;28;20377;-72
2022/04/21 06:30:38;;;;;;;13.10;6.85;;;;;;;8.74;63.82;101248.38;5046827;28;20043;-74
2022/04/21 06:33:04;;;;;;;14.05;6.65;;;;;;;8.76;64.28;101248.28;5060068;28;20389;-70
2022/04/21 06:35:29;;;;;;;11.75;6.45;;;;;;;8.82;63.90;101245.25;5059577;28;20113;-68
2022/04/21 06:37:55;;;;;;;13.48;7.22;;;;;;;8.87;65.26;101251.25;5057988;28;20036;-72
2022/04/21 06:40:22;;;;;;;17.23;7.57;;;;;;;9.06;65.37;101251.03;5066752;28;20029;-69
2022/04/21 06:42:47;;;;;;;11.60;6.63;;;;;;;9.45;63.30;101245.03;5055993;28;20480;-78
2022/04/21 06:48:03;;;;;;;10.18;6.28;;;;;;;9.92;60.22;101241.19;5071027;28;20476;-70
2022/04/21 06:50:37;;;;;;;15.80;6.32;;;;;;;10.06;59.75;101237.59;5063599;28;20033;-74
2022/04/21 06:53:04;;;;;;;8.98;5.97;;;;;;;10.10;60.01;101236.44;5064074;28;20522;-69
2022/04/21 06:55:30;;;;;;;12.30;5.95;;;;;;;10.17;58.61;101237.81;5062606;28;20029;-74
2022/04/21 06:57:55;;;;;;;12.75;5.65;;;;;;;10.10;58.29;101239.16;5062420;28;20387;-68
2022/04/21 07:00:22;;;;;;;14.70;6.40;;;;;;;10.13;59.95;101230.81;5058292;28;20399;-73
2022/04/21 07:02:51;;;;;;;9.82;5.93;;;;;;;10.25;60.26;101237.31;5070721;28;20042;-74
2022/04/21 07:05:17;;;;;;;19.08;6.55;;;;;;;10.31;60.75;101234.22;5067977;28;20115;-68
2022/04/21 07:07:43;;;;;;;14.77;6.07;;;;;;;10.32;61.30;101239.56;5068414;28;20030;-70
2022/04/21 07:10:10;;;;;;;7.85;5.38;;;;;;;10.32;60.02;101235.97;5063048;28;20040;-69
2022/04/21 07:12:36;;;;;;;12.32;5.75;;;;;;;10.34;58.94;101228.56;5052320;28;20033;-78
2022/04/21 07:15:06;;;;;;;23.58;5.65;;;;;;;10.44;57.53;101238.75;5048412;28;20523;-75
2022/04/21 07:17:33;;;;;;;7.72;5.68;;;;;;;10.58;56.60;101237.81;5068110;28;20035;-75
2022/04/21 07:20:02;;;;;;;13.43;5.25;;;;;;;10.59;56.81;101234.16;5064014;28;20067;-75
2022/04/21 07:22:28;;;;;;;10.18;5.65;;;;;;;10.54;58.20;101244.47;5070588;28;20532;-70
2022/04/21 07:24:55;;;;;;;8.98;5.47;;;;;;;10.53;56.92;101236.38;5064692;28;20119;-75
2022/04/21 07:27:22;;;;;;;12.73;5.53;;;;;;;10.59;57.48;101238.72;5058829;28;20021;-71
2022/04/21 07:29:47;;;;;;;10.88;5.28;;;;;;;10.66;57.34;101248.22;5069048;28;20039;-70
2022/04/21 07:32:13;;;;;;;6.93;5.20;;;;;;;10.76;57.69;101243.88;5050221;28;20041;-68
2022/04/21 07:34:38;;;;;;;9.88;6.10;;;;;;;10.80;59.59;101241.84;5056111;28;20033;-73
2022/04/21 07:37:05;;;;;;;8.90;5.13;;;;;;;10.86;57.48;101250.47;5052590;28;20021;-68
2022/04/21 07:39:31;;;;;;;9.52;4.80;;;;;;;10.95;60.13;101247.13;5051849;28;20025;-68
2022/04/21 07:41:58;;;;;;;10.35;5.85;;;;;;;11.09;58.76;101248.91;5070821;28;20041;-77
2022/04/21 07:44:26;;;;;;;17.40;6.93;;;;;;;11.30;58.57;101245.69;5054757;28;20029;-77
2022/04/21 07:46:52;;;;;;;9.73;6.32;;;;;;;11.56;55.37;101250.19;5064776;28;20028;-74
2022/04/21 07:54:45;;;;;;;8.20;4.90;;;;;;;12.39;53.01;101242.41;5067183;28;20056;-70
2022/04/21 07:57:11;;;;;;;7.57;5.03;;;;;;;12.55;53.63;101244.03;5069974;28;20047;-74
2022/04/21 07:59:36;;;;;;;11.48;6.18;;;;;;;12.65;52.42;101236.91;5060990;28;20040;-77
2022/04/21 08:02:03;;;;;;;7.53;5.05;;;;;;;12.75;51.22;101236.06;5065738;28;20048;-69
2022/04/21 08:04:30;;;;;;;10.45;5.15;;;;;;;12.86;52.01;101239.84;5061664;28;20480;-74
2022/04/21 08:06:57;;;;;;;7.03;5.03;;;;;;;13.19;53.63;101242.72;5053511;28;20162;-77
2022/04/21 08:09:22;;;;;;;10.07;5.28;;;;;;;13.54;53.31;101239.16;5065416;28;20036;-68
2022/04/21 08:11:48;;;;;;;10.18;5.03;;;;;;;13.82;50.64;101239.72;5051808;28;20412;-68
2022/04/21 08:14:16;;;;;;;11.65;4.32;;;;;;;13.97;50.12;101242.06;5056046;28;20048;-73
2022/04/21 08:16:42;;;;;;;10.75;5.18;;;;;;;14.24;49.21;101249.06;5057734;28;20032;-77
2022/04/21 08:19:08;;;;;;;8.68;4.55;;;;;;;14.27;49.89;101244.22;5057040;28;20033;-69
2022/04/21 08:21:33;;;;;;;6.63;5.22;;;;;;;14.48;49.50;101240.72;5059114;28;20131;-76
2022/04/21 08:32:33;;;;;;;9.43;5.00;;;;;;;14.77;48.92;101243.78;5060609;28;20120;-74
2022/04/21 08:34:57;;;;;;;9.82;4.75;;;;;;;15.55;46.65;101242.59;5052777;28;20056;-74
2022/04/21 08:37:23;;;;;;;8.27;4.78;;;;;;;15.98;48.64;101255.28;5062457;28;20104;-73
2022/04/21 08:39:48;;;;;;;12.00;4.80;;;;;;;15.85;43.95;101255.50;5050944;28;20567;-70
2022/04/21 08:42:15;;;;;;;9.77;5.05;;;;;;;15.44;46.61;101251.75;5059449;28;20123;-69
2022/04/21 08:44:44;;;;;;;7.72;5.07;;;;;;;15.18;47.59;101245.75;5061648;28;20098;-69
2022/04/21 08:47:12;;;;;;;9.52;5.22;;;;;;;15.09;47.04;101248.41;5077784;28;20573;-73
2022/04/21 08:49:39;;;;;;;14.93;5.60;;;;;;;15.22;47.57;101244.50;5067728;28;20090;-76
2022/04/21 08:52:05;;;;;;;5.72;4.60;;;;;;;15.58;48.06;101234.09;5064996;28;20032;-73
2022/04/21 08:54:31;;;;;;;7.32;4.60;;;;;;;16.27;49.56;101234.38;5068788;28;20143;-66
2022/04/21 08:56:57;;;;;;;9.32;4.93;;;;;;;16.55;46.82;101235.47;5065932;28;20115;-68
2022/04/21 08:59:23;;;;;;;7.38;4.65;;;;;;;16.73;44.87;101235.66;5056367;28;20404;-67
2022/04/21 09:01:49;;;;;;;8.43;4.85;;;;;;;16.75;45.36;101228.16;5070257;28;20058;-67
2022/04/21 09:04:14;;;;;;;7.15;4.85;;;;;;;16.74;45.30;101226.44;5070189;28;20024;-75
2022/04/21 09:06:40;;;;;;;11.02;5.15;;;;;;;16.54;43.34;101230.97;5073429;28;20641;-68
2022/04/21 09:09:22;;;;;;;7.72;3.70;;;;;;;16.68;45.50;101228.81;5071547;28;20384;-69
2022/04/21 09:11:53;;;;;;;62.08;6.93;;;;;;;16.83;45.94;101222.84;5071949;28;20079;-78
2022/04/21 09:14:20;;;;;;;11.50;4.25;;;;;;;17.45;45.45;101223.41;5068488;28;20044;-66
2022/04/21 09:16:47;;;;;;;6.68;4.35;;;;;;;17.64;41.52;101221.66;5060651;28;20086;-73
2022/04/21 09:19:15;;;;;;;6.13;3.55;;;;;;;17.78;41.11;101219.31;5070042;28;20035;-72
2022/04/21 09:21:41;;;;;;;26.20;5.35;;;;;;;18.05;39.38;101221.28;5072728;28;20074;-68
2022/04/21 09:24:23;;;;;;;7.88;4.10;;;;;;;17.97;41.54;101220.28;5060020;28;20137;-69
2022/04/21 09:26:49;;;;;;;;;;;;;;;17.64;41.96;101208.75;5059676;28;20112;-69
2022/04/21 09:29:33;;;;;;;6.13;4.05;;;;;;;17.08;43.15;101228.78;5065431;28;20424;-71
2022/04/21 09:32:00;;;;;;;6.80;4.10;;;;;;;16.94;43.10;101215.47;5066222;28;20044;-68
2022/04/21 09:34:26;;;;;;;5.63;3.75;;;;;;;17.02;42.11;101207.34;5067327;28;20035;-67
2022/04/21 09:36:58;;;;;;;6.43;3.90;;;;;;;17.23;43.54;101207.22;5068285;28;20021;-74
2022/04/21 09:39:23;;;;;;;8.07;4.50;;;;;;;17.54;41.75;101203.28;5071704;28;20047;-77
2022/04/21 09:41:53;;;;;;;7.22;3.75;;;;;;;17.76;41.68;101209.47;5067057;28;20574;-69
2022/04/21 09:47:05;;;;;;;4.88;2.90;;;;;;;17.95;38.38;101203.03;5071180;28;20033;-68
2022/04/21 09:49:43;;;;;;;5.30;2.97;;;;;;;18.34;37.61;101207.38;5059297;28;20443;-77
2022/04/21 09:52:09;;;;;;;11.57;3.22;;;;;;;18.10;36.96;101196.03;5071789;28;20098;-72
2022/04/21 09:54:35;;;;;;;5.28;2.60;;;;;;;17.91;37.57;101204.38;5070607;28;20036;-75
2022/04/21 09:57:01;;;;;;;3.38;2.55;;;;;;;17.69;35.63;101198.16;5069534;28;20425;-69
2022/04/21 09:59:27;;;;;;;6.63;2.60;;;;;;;17.75;37.28;101194.84;5063771;28;20036;-74
2022/04/21 10:01:54;;;;;;;4.38;2.90;;;;;;;17.99;37.50;101188.81;5068387;28;20442;-67
2022/04/21 10:04:20;;;;;;;7.18;2.80;;;;;;;18.16;35.08;101192.66;5067331;28;20036;-76
2022/04/21 10:06:47;;;;;;;2.80;2.38;;;;;;;18.39;34.16;101184.00;5072069;28;20034;-67
2022/04/21 10:09:16;;;;;;;4.38;2.30;;;;;;;18.68;35.36;101179.16;5071340;28;20064;-74
2022/04/21 10:11:42;;;;;;;3.70;2.42;;;;;;;18.52;34.04;101188.13;5071528;28;20037;-72
2022/04/21 10:14:18;;;;;;;3.20;2.85;;;;;;;18.32;33.25;101178.22;5061500;28;20169;-72
2022/04/21 10:16:43;;;;;;;4.22;2.60;;;;;;;18.56;37.29;101180.44;5067667;28;20090;-67
2022/04/21 10:19:11;;;;;;;4.20;2.80;;;;;;;18.73;34.23;101178.75;5065564;28;20029;-72
2022/04/21 10:21:42;;;;;;;7.20;3.35;;;;;;;18.84;36.15;101184.03;5072478;28;20037;-68
2022/04/21 10:24:08;;;;;;;7.30;3.38;;;;;;;18.53;35.57;101172.47;5048686;28;20037;-68
2022/04/21 10:26:40;;;;;;;6.18;3.45;;;;;;;18.39;34.31;101162.84;5052847;28;20036;-71
2022/04/21 10:29:17;;;;;;;7.32;3.40;;;;;;;18.52;38.40;101162.47;5050932;28;20484;-69
2022/04/21 10:31:59;;;;;;;3.53;3.08;;;;;;;18.61;35.74;101161.53;5055910;28;20060;-72
2022/04/21 10:34:36;;;;;;;;;;;;;;;18.43;36.47;101160.66;5055734;28;20536;-67
2022/04/21 10:37:12;;;;;;;6.65;3.22;;;;;;;18.26;34.91;101163.19;5065206;28;19942;-68
2022/04/21 10:39:38;;;;;;;5.40;3.10;;;;;;;18.06;32.78;101156.91;5060919;28;20116;-73
2022/04/21 10:42:19;;;;;;;3.70;3.30;;;;;;;17.99;35.51;101163.16;5057418;28;20127;-68
2022/04/21 10:44:51;;;;;;;4.72;2.90;;;;;;;17.69;35.56;101147.78;5057772;28;20040;-75
2022/04/21 10:47:33;;;;;;;;;;;;;;;17.83;35.27;101147.31;5066151;28;20041;-73
2022/04/21 10:50:11;;;;;;;3.92;2.00;;;;;;;17.76;31.37;101146.16;5071131;28;19913;-69
2022/04/21 10:57:55;;;;;;;5.75;2.58;;;;;;;18.04;30.06;101144.31;5063906;28;20040;-68
2022/04/21 11:00:31;;;;;;;4.30;2.10;;;;;;;18.03;32.20;101142.59;5057368;28;20159;-73
2022/04/21 11:03:08;;;;;;;9.00;1.90;;;;;;;18.09;31.07;101134.59;5060378;28;20036;-69
2022/04/21 11:05:35;;;;;;;4.70;2.05;;;;;;;18.14;29.29;101141.50;5058966;28;20032;-66
2022/04/21 11:08:10;;;;;;;3.05;2.28;;;;;;;18.47;31.73;101145.53;5041560;28;20045;-67
2022/04/21 11:10:39;;;;;;;3.80;2.25;;;;;;;18.37;29.57;101137.31;5067919;28;20032;-72
2022/04/21 11:13:05;;;;;;;4.93;2.00;;;;;;;18.42;31.56;101140.50;5045943;28;20025;-75
2022/04/21 11:15:58;;;;;;;3.60;2.30;;;;;;;18.41;32.30;101135.97;5054376;28;20041;-68
2022/04/21 11:18:31;;;;;;;7.60;2.03;;;;;;;18.85;34.00;101120.47;5053025;28;20048;-67
2022/04/21 11:21:27;;;;;;;3.60;2.15;;;;;;;19.47;33.33;101117.66;5058878;28;20124;-67
2022/04/21 11:23:52;;;;;;;2.70;2.20;;;;;;;19.26;30.41;101111.69;5071646;28;20488;-71
2022/04/21 11:26:25;;;;;;;9.02;2.33;;;;;;;19.32;29.69;101111.03;5062565;28;20029;-73
2022/04/21 11:28:51;;;;;;;4.10;2.83;;;;;;;19.26;29.96;101118.06;5061961;28;20395;-67
2022/04/21 11:31:20;;;;;;;4.53;2.25;;;;;;;19.08;28.88;101106.19;5056940;28;20041;-67
2022/04/21 11:33:46;;;;;;;2.40;2.03;;;;;;;18.93;28.84;101107.75;5059185;28;20102;-69
2022/04/21 11:36:13;;;;;;;3.85;2.20;;;;;;;19.11;29.73;101103.09;5059960;28;20451;-67
2022/04/21 11:38:43;;;;;;;5.05;2.25;;;;;;;19.30;28.33;101091.00;5068220;28;20044;-70
2022/04/21 11:41:10;;;;;;;4.50;2.47;;;;;;;19.26;29.00;101090.47;5065082;28;20506;-71
2022/04/21 11:43:37;;;;;;;4.32;2.25;;;;;;;19.27;30.21;101089.44;5067216;28;20040;-67
2022/04/21 11:46:09;;;;;;;3.83;2.55;;;;;;;19.06;29.70;101097.19;5060176;28;20032;-69
2022/04/21 11:48:42;;;;;;;6.35;2.40;;;;;;;19.11;30.48;101090.16;5065632;28;20392;-78
2022/04/21 11:51:09;;;;;;;6.88;2.88;;;;;;;19.01;30.46;101088.53;5058452;28;20495;-66
2022/04/21 11:53:42;;;;;;;3.63;2.10;;;;;;;19.15;29.16;101089.84;5065532;28;20476;-76
2022/04/21 11:56:11;;;;;;;3.20;2.58;;;;;;;19.35;28.49;101085.84;5069613;28;20476;-74
2022/04/21 11:58:38;;;;;;;3.22;2.28;;;;;;;19.38;29.46;101077.25;5057919;28;20025;-73
2022/04/21 12:06:47;;;;;;;5.53;2.50;;;;;;;20.85;28.98;101078.69;5066166;28;20071;-67
2022/04/21 12:09:15;;;;;;;4.43;2.20;;;;;;;21.02;27.82;101073.13;5066299;28;20484;-78
2022/04/21 12:11:41;;;;;;;3.40;2.22;;;;;;;20.64;29.02;101068.09;5068365;28;20531;-68
2022/04/21 12:14:08;;;;;;;3.22;2.25;;;;;;;20.31;28.35;101071.81;5065321;28;20051;-67
2022/04/21 12:16:44;;;;;;;5.32;2.22;;;;;;;20.08;28.17;101066.06;5054900;28;20035;-68
2022/04/21 12:19:16;;;;;;;4.97;2.13;;;;;;;20.02;27.87;101062.06;5060981;28;20032;-73
2022/04/21 12:21:44;;;;;;;2.63;2.20;;;;;;;20.10;28.28;101058.50;5055813;28;20491;-75